• Join FlightAware (Why Join?)
  • Login
  • US Flag 
02:36AM EDT


 

Airport Tracker/Info


-or-


 

Live Flight TrackerFlight Track Log ✈ UAL4563 ✈ 05-Dec-2013 ✈ KCLE - KMHT

Flight Track Log - Related Links

Times and Time Zones

All times are in EST time to prevent confusion due to time zone crossing. See the UAL4563 flight status page for this flight to view local times or setup timezone preferences in your user account.

Time Position Orientation Groundspeed Altitude Reporting Facility
EST Latitude Longitude Course Direction KTS MPH feet Rate Location/Type
07:25PM 41.3903 -81.8836 255° West 165 190 1,900  Level Cleveland Center
07:25PM 41.3864 -81.9025 255° West 171 197 2,500 2,040 Climbing Cleveland Center
07:26PM 41.3875 -81.9292 273° West 190 219 3,400 2,160 Climbing Cleveland Center
07:27PM 41.4364 -81.9639 332° Northwest 240 276 5,700 2,520 Climbing Cleveland Center
07:28PM 41.4983 -81.8917 41° Northeast 287 330 8,700 2,460 Climbing Cleveland Center
07:29PM 41.5592 -81.8075 46° Northeast 306 352 10,900 1,560 Climbing Cleveland Center
07:30PM 41.6292 -81.7097 46° Northeast 354 407 12,000 1,200 Climbing Cleveland Center
07:31PM 41.7083 -81.5997 46° Northeast 396 456 13,400 1,620 Climbing Cleveland Center
07:32PM 41.7894 -81.4878 46° Northeast 410 472 15,400 1,800 Climbing Cleveland Center
07:33PM 41.8500 -81.3553 58° Northeast 418 481 17,200 1,380 Climbing Cleveland Center
07:34PM 41.8733 -81.1989 79° East 424 488 18,300 960 Climbing Cleveland Center
07:35PM 41.8983 -81.0322 79° East 446 513 19,300 1,080 Climbing Cleveland Center
07:36PM 41.9244 -80.8564 79° East 469 540 20,600 1,500 Climbing Cleveland Center
07:37PM 41.9561 -80.6514 78° East 477 549 22,400 1,560 Climbing Cleveland Center
07:38PM 41.9819 -80.4742 79° East 479 551 23,900 1,440 Climbing Cleveland Center
07:39PM 42.0075 -80.2964 79° East 478 550 25,400 1,320 Climbing Cleveland Center
07:40PM 42.0322 -80.1192 79° East 479 551 26,700 1,260 Climbing Cleveland Center
07:41PM 42.0592 -79.9361 79° East 482 555 28,000 1,200 Climbing Cleveland Center
07:42PM 42.0833 -79.7594 79° East 482 555 29,300 1,200 Climbing Cleveland Center
07:43PM 42.1075 -79.5831 79° East 481 554 30,600 780 Climbing Cleveland Center
07:44PM 42.1314 -79.4050 80° East 484 557 31,000 180 Climbing Cleveland Center
07:45PM 42.1572 -79.2125 80° East 517 595 31,000  Level Cleveland Center
07:46PM 42.1889 -78.9756 80° East 533 613 31,000  Level Cleveland Center
07:47PM 42.2150 -78.7808 80° East 520 598 31,000  Level Cleveland Center
07:48PM 42.2389 -78.5881 80° East 522 601 31,000  Level Cleveland Center
07:49PM 42.2636 -78.3944 80° East 526 605 31,000 300 Level Cleveland Center
07:50PM 42.2886 -78.1997 80° East 528 608 31,700 780 Climbing Cleveland Center
07:51PM 42.3108 -78.0136 81° East 510 587 32,700 600 Climbing Cleveland Center
07:52PM 42.3378 -77.7933 81° East 502 578 33,000 120 Climbing Cleveland Center
07:54PM 42.3592 -77.6117 81° East 499 574 33,000  Level Cleveland Center
07:55PM 42.3817 -77.4267 81° East 506 582 33,000  Level Cleveland Center
07:56PM 42.4033 -77.2358 81° East 517 595 33,000  Level Cleveland Center
07:57PM 42.4242 -77.0447 82° East 518 596 33,000  Level Cleveland Center
07:57PM 42.4461 -76.8589 81° East 505 581 33,000  Level Cleveland Center
07:58PM 42.5147 -76.7175 57° Northeast 454 522 33,000  Level Cleveland Center
08:00PM 42.6064 -76.7456 347° North 366 421 33,000  Level Cleveland Center
08:01PM 42.5881 -76.8581 258° West 318 366 33,000  Level Boston Center
08:02PM 42.5689 -76.9764 258° West 323 372 33,100  Climbing Cleveland Center
08:03PM 42.5394 -77.1050 253° West 350 403 33,100 -360 Level Cleveland Center
08:04PM 42.5025 -77.2642 253° West 365 420 32,400 -540 Descending Cleveland Center
08:05PM 42.4708 -77.3994 252° West 373 429 32,000 -240 Descending Cleveland Center
08:06PM 42.4411 -77.5272 253° West 371 427 32,000  Level Cleveland Center
08:07PM 42.4075 -77.6678 252° West 370 426 32,000  Level Cleveland Center
08:08PM 42.3767 -77.8014 253° West 370 426 32,000  Level Cleveland Center
08:09PM 42.3453 -77.9336 252° West 369 425 32,000  Level Cleveland Center
08:10PM 42.3136 -78.0650 252° West 367 422 32,000  Level Cleveland Center
08:11PM 42.2825 -78.1917 252° West 359 413 32,000  Level Cleveland Center
08:12PM 42.2461 -78.3411 252° West 352 405 32,000  Level Cleveland Center
08:13PM 42.2153 -78.4667 252° West 352 405 32,000  Level Cleveland Center
08:14PM 42.1833 -78.5947 251° West 358 412 32,000  Level Cleveland Center
08:15PM 42.1503 -78.7292 252° West 360 414 32,000  Level Cleveland Center
08:16PM 42.1219 -78.8497 252° West 339 390 32,000 -540 Level Cleveland Center
08:17PM 42.0942 -78.9578 251° West 312 359 31,000 -1,020 Descending Cleveland Center
08:18PM 42.0675 -79.0656 252° West 307 353 30,000 -1,140 Descending Cleveland Center
08:19PM 42.0339 -79.1969 251° West 311 358 28,700 -1,020 Descending Cleveland Center
08:20PM 42.0064 -79.3064 251° West 312 359 28,000 -360 Descending Cleveland Center
08:21PM 41.9764 -79.4242 251° West 331 381 28,000  Level Cleveland Center
08:22PM 41.9461 -79.5428 251° West 338 389 28,000  Level Cleveland Center
08:23PM 41.9119 -79.6744 251° West 344 396 28,000  Level Cleveland Center
08:24PM 41.8800 -79.7936 250° West 338 389 28,000 -540 Level Cleveland Center
08:25PM 41.8514 -79.9086 252° West 326 375 26,900 -1,320 Descending Cleveland Center
08:26PM 41.8228 -80.0192 251° West 314 361 25,300 -1,680 Descending Cleveland Center
08:27PM 41.7861 -80.1569 250° West 334 384 23,500 -1,620 Descending Cleveland Center
08:28PM 41.7569 -80.2694 251° West 321 369 22,000 -1,500 Descending Cleveland Center
08:29PM 41.7297 -80.3758 251° West 303 349 20,400 -1,500 Descending Cleveland Center
08:31PM 41.7011 -80.4803 250° West 300 345 18,900 -1,440 Descending Cleveland Center
08:32PM 41.6717 -80.5894 250° West 309 356 17,500 -1,500 Descending Cleveland Center
08:33PM 41.6436 -80.6942 250° West 301 346 15,900 -1,500 Descending Cleveland Center
08:34PM 41.6131 -80.8033 250° West 310 357 14,400 -1,500 Descending Cleveland Center
08:35PM 41.5844 -80.9111 250° West 307 353 12,800 -1,680 Descending Cleveland Center
08:35PM 41.5792 -80.9333 252° West 309 356 12,600 -1,920 Descending Cleveland Center
08:35PM 41.5700 -80.9683 251° West 308 354 12,100 -1,680 Descending Cleveland Center
08:36PM 41.5492 -81.0392 249° West 311 358 11,000 -1,500 Descending Cleveland Center
08:36PM 41.5397 -81.0756 251° West 311 358 10,600 -1,020 Descending Cleveland Center
08:37PM 41.5325 -81.1550 263° West 319 367 10,000 -540 Descending Cleveland Center
08:37PM 41.5325 -81.2083 270° West 317 365 10,000  Level Cleveland Center
08:38PM 41.5311 -81.2678 268° West 309 356 10,000 -300 Level Cleveland Center
08:38PM 41.5303 -81.3086 268° West 248 285 9,700 -1,080 Descending Cleveland Center
08:39PM 41.5292 -81.3567 268° West 253 291 8,900 -1,380 Descending Cleveland Center
08:39PM 41.5286 -81.3978 269° West 234 269 8,300 -1,260 Descending Cleveland Center
08:40PM 41.5264 -81.4450 266° West 237 273 7,600 -1,200 Descending Cleveland Center
08:40PM 41.5339 -81.4794 286° West 225 259 7,100 -1,020 Descending Cleveland Center
08:41PM 41.5519 -81.5119 307° West 216 249 6,600 -840 Descending Cleveland Center
08:41PM 41.5669 -81.5350 311° West 179 206 6,300 -600 Descending Cleveland Center
08:42PM 41.5636 -81.5697 263° West 180 207 6,000 -600 Descending Cleveland Center
08:42PM 41.5592 -81.5981 258° West 169 194 5,700 -1,080 Descending Cleveland Center
08:43PM 41.5489 -81.6406 252° West 171 197 4,900 -1,080 Descending Cleveland Center
08:43PM 41.5344 -81.6611 227° Southwest 182 209 4,500 -1,020 Descending Cleveland Center
08:44PM 41.5139 -81.6914 228° Southwest 182 209 3,900 -1,020 Descending Cleveland Center
08:44PM 41.5003 -81.7144 232° Southwest 188 216 3,500 -1,020 Descending Cleveland Center
08:45PM 41.4800 -81.7433 227° Southwest 184 212 2,900 -1,020 Descending Cleveland Center
08:45PM 41.4708 -81.7600 234° Southwest 181 208 2,600 -900 Descending Cleveland Center
08:46PM 41.4550 -81.7861 231° Southwest 157 181 2,000 -840 Descending Cleveland Center
08:46PM 41.4464 -81.7978 225° Southwest 122 140 1,800 -720 Descending Cleveland Center
08:47PM 41.4311 -81.8231 231° Southwest 138 159 1,300 -780 Descending Cleveland Center
08:47PM 41.4242 -81.8333 228° Southwest 134 154 1,100 -540 Descending Cleveland Center
08:48PM 41.4081 -81.8583 229° Southwest 134 154 800 -360 Descending Cleveland Center
08:50PM 41.4094 -81.8547 73° East  Level Estimated